sensor_id;sensor_type;location;lat;lon;timestamp;temperature;humidity
3980;DHT22;2004;52.452;13.120;2022-11-20T00:01:22;0.60;99.90
3980;DHT22;2004;52.452;13.120;2022-11-20T00:09:13;0.60;99.90
3980;DHT22;2004;52.452;13.120;2022-11-20T00:17:03;0.60;99.90
3980;DHT22;2004;52.452;13.120;2022-11-20T00:24:54;0.60;99.90
3980;DHT22;2004;52.452;13.120;2022-11-20T00:32:44;0.60;99.90
3980;DHT22;2004;52.452;13.120;2022-11-20T00:40:35;0.60;99.90
3980;DHT22;2004;52.452;13.120;2022-11-20T00:48:26;0.50;99.90
3980;DHT22;2004;52.452;13.120;2022-11-20T00:56:18;0.50;99.90
3980;DHT22;2004;52.452;13.120;2022-11-20T01:04:09;0.40;99.90
3980;DHT22;2004;52.452;13.120;2022-11-20T01:12:00;0.40;99.90
3980;DHT22;2004;52.452;13.120;2022-11-20T01:19:50;0.40;99.90
3980;DHT22;2004;52.452;13.120;2022-11-20T01:27:41;0.30;99.90
3980;DHT22;2004;52.452;13.120;2022-11-20T01:35:31;0.30;99.90
3980;DHT22;2004;52.452;13.120;2022-11-20T01:43:22;0.30;99.90
3980;DHT22;2004;52.452;13.120;2022-11-20T01:51:21;0.30;99.90
3980;DHT22;2004;52.452;13.120;2022-11-20T01:59:14;0.30;99.90
3980;DHT22;2004;52.452;13.120;2022-11-20T02:07:06;0.30;99.90
3980;DHT22;2004;52.452;13.120;2022-11-20T02:14:57;0.30;99.90
3980;DHT22;2004;52.452;13.120;2022-11-20T02:22:57;0.30;99.90
3980;DHT22;2004;52.452;13.120;2022-11-20T02:30:50;0.30;99.90
3980;DHT22;2004;52.452;13.120;2022-11-20T02:38:41;0.30;99.90
3980;DHT22;2004;52.452;13.120;2022-11-20T02:46:33;0.20;99.90
3980;DHT22;2004;52.452;13.120;2022-11-20T02:54:25;0.20;99.90
3980;DHT22;2004;52.452;13.120;2022-11-20T03:02:16;0.20;99.90
3980;DHT22;2004;52.452;13.120;2022-11-20T03:10:07;0.20;99.90
3980;DHT22;2004;52.452;13.120;2022-11-20T03:17:58;0.20;99.90
3980;DHT22;2004;52.452;13.120;2022-11-20T03:25:48;0.20;99.90
3980;DHT22;2004;52.452;13.120;2022-11-20T03:33:40;0.20;99.90
3980;DHT22;2004;52.452;13.120;2022-11-20T03:41:36;0.20;99.90
3980;DHT22;2004;52.452;13.120;2022-11-20T03:49:26;0.20;99.90
3980;DHT22;2004;52.452;13.120;2022-11-20T03:57:17;0.20;99.90
3980;DHT22;2004;52.452;13.120;2022-11-20T04:05:08;0.20;99.90
3980;DHT22;2004;52.452;13.120;2022-11-20T04:12:58;0.20;99.90
3980;DHT22;2004;52.452;13.120;2022-11-20T04:20:49;0.20;99.90
3980;DHT22;2004;52.452;13.120;2022-11-20T04:28:39;0.30;99.90
3980;DHT22;2004;52.452;13.120;2022-11-20T04:36:30;0.30;99.90
3980;DHT22;2004;52.452;13.120;2022-11-20T04:44:21;0.40;99.90
3980;DHT22;2004;52.452;13.120;2022-11-20T04:52:11;0.40;99.90
3980;DHT22;2004;52.452;13.120;2022-11-20T05:00:03;0.40;99.90
3980;DHT22;2004;52.452;13.120;2022-11-20T05:07:58;0.50;99.90
3980;DHT22;2004;52.452;13.120;2022-11-20T05:15:49;0.50;99.90
3980;DHT22;2004;52.452;13.120;2022-11-20T05:23:40;0.50;99.90
3980;DHT22;2004;52.452;13.120;2022-11-20T05:31:31;0.50;99.90
3980;DHT22;2004;52.452;13.120;2022-11-20T05:39:22;0.50;99.90
3980;DHT22;2004;52.452;13.120;2022-11-20T05:47:12;0.50;99.90
3980;DHT22;2004;52.452;13.120;2022-11-20T05:55:03;0.60;99.90
3980;DHT22;2004;52.452;13.120;2022-11-20T06:02:53;0.60;99.90
3980;DHT22;2004;52.452;13.120;2022-11-20T06:10:44;0.60;99.90
3980;DHT22;2004;52.452;13.120;2022-11-20T06:18:34;0.60;99.90
3980;DHT22;2004;52.452;13.120;2022-11-20T06:26:26;0.60;99.90
3980;DHT22;2004;52.452;13.120;2022-11-20T06:34:17;0.60;99.90
3980;DHT22;2004;52.452;13.120;2022-11-20T06:42:08;0.60;99.90
3980;DHT22;2004;52.452;13.120;2022-11-20T06:49:58;0.60;99.90
3980;DHT22;2004;52.452;13.120;2022-11-20T06:57:50;0.60;99.90
3980;DHT22;2004;52.452;13.120;2022-11-20T07:05:41;0.70;99.90
3980;DHT22;2004;52.452;13.120;2022-11-20T07:13:31;0.70;99.90
3980;DHT22;2004;52.452;13.120;2022-11-20T07:21:22;0.70;99.90
3980;DHT22;2004;52.452;13.120;2022-11-20T07:29:12;0.70;99.90
3980;DHT22;2004;52.452;13.120;2022-11-20T07:37:03;0.70;99.90
3980;DHT22;2004;52.452;13.120;2022-11-20T07:44:53;0.60;99.90
3980;DHT22;2004;52.452;13.120;2022-11-20T07:52:44;0.60;99.90
3980;DHT22;2004;52.452;13.120;2022-11-20T08:00:34;0.60;99.90
3980;DHT22;2004;52.452;13.120;2022-11-20T08:08:25;0.60;99.90
3980;DHT22;2004;52.452;13.120;2022-11-20T08:16:16;0.70;99.90
3980;DHT22;2004;52.452;13.120;2022-11-20T08:24:07;0.70;99.90
3980;DHT22;2004;52.452;13.120;2022-11-20T08:31:58;0.70;99.90
3980;DHT22;2004;52.452;13.120;2022-11-20T08:39:48;0.80;99.90
3980;DHT22;2004;52.452;13.120;2022-11-20T08:47:39;0.80;99.90
3980;DHT22;2004;52.452;13.120;2022-11-20T08:55:30;0.80;99.90
3980;DHT22;2004;52.452;13.120;2022-11-20T09:03:20;0.90;99.90
3980;DHT22;2004;52.452;13.120;2022-11-20T09:11:11;0.90;99.90
3980;DHT22;2004;52.452;13.120;2022-11-20T09:19:01;0.90;99.90
3980;DHT22;2004;52.452;13.120;2022-11-20T09:26:52;0.90;99.90
3980;DHT22;2004;52.452;13.120;2022-11-20T09:34:42;0.90;99.90
3980;DHT22;2004;52.452;13.120;2022-11-20T09:42:47;0.90;99.90
3980;DHT22;2004;52.452;13.120;2022-11-20T09:50:55;0.90;99.90
3980;DHT22;2004;52.452;13.120;2022-11-20T09:58:50;0.90;99.90
3980;DHT22;2004;52.452;13.120;2022-11-20T10:06:47;0.80;99.90
3980;DHT22;2004;52.452;13.120;2022-11-20T10:15:01;0.90;99.90
3980;DHT22;2004;52.452;13.120;2022-11-20T10:31:30;1.00;99.90
3980;DHT22;2004;52.452;13.120;2022-11-20T10:47:34;1.10;99.90
3980;DHT22;2004;52.452;13.120;2022-11-20T11:03:31;1.20;99.90
3980;DHT22;2004;52.452;13.120;2022-11-20T11:11:28;1.30;99.90
3980;DHT22;2004;52.452;13.120;2022-11-20T11:19:19;1.40;99.90
3980;DHT22;2004;52.452;13.120;2022-11-20T11:27:14;1.40;99.90
3980;DHT22;2004;52.452;13.120;2022-11-20T11:35:24;1.40;99.90
3980;DHT22;2004;52.452;13.120;2022-11-20T11:43:30;1.40;99.90
3980;DHT22;2004;52.452;13.120;2022-11-20T11:51:58;1.40;99.90
3980;DHT22;2004;52.452;13.120;2022-11-20T12:00:14;1.50;99.90
3980;DHT22;2004;52.452;13.120;2022-11-20T12:08:55;1.60;99.90
3980;DHT22;2004;52.452;13.120;2022-11-20T12:16:25;1.70;99.90
3980;DHT22;2004;52.452;13.120;2022-11-20T12:32:52;1.60;99.90
3980;DHT22;2004;52.452;13.120;2022-11-20T12:41:06;1.60;99.90
3980;DHT22;2004;52.452;13.120;2022-11-20T12:49:19;1.50;99.90
3980;DHT22;2004;52.452;13.120;2022-11-20T12:57:40;1.40;99.90
3980;DHT22;2004;52.452;13.120;2022-11-20T13:05:59;1.40;99.90
3980;DHT22;2004;52.452;13.120;2022-11-20T13:14:04;1.40;99.90
3980;DHT22;2004;52.452;13.120;2022-11-20T13:21:58;1.40;99.90
3980;DHT22;2004;52.452;13.120;2022-11-20T13:30:00;1.30;99.90
3980;DHT22;2004;52.452;13.120;2022-11-20T13:38:11;1.30;99.90
3980;DHT22;2004;52.452;13.120;2022-11-20T13:46:04;1.40;99.90
3980;DHT22;2004;52.452;13.120;2022-11-20T13:54:18;1.40;99.90
3980;DHT22;2004;52.452;13.120;2022-11-20T14:02:18;1.40;99.90
3980;DHT22;2004;52.452;13.120;2022-11-20T14:10:27;1.40;99.90
3980;DHT22;2004;52.452;13.120;2022-11-20T14:18:21;1.50;99.90
3980;DHT22;2004;52.452;13.120;2022-11-20T14:26:17;1.40;99.90
3980;DHT22;2004;52.452;13.120;2022-11-20T14:34:17;1.40;99.90
3980;DHT22;2004;52.452;13.120;2022-11-20T14:42:17;1.40;99.90
3980;DHT22;2004;52.452;13.120;2022-11-20T14:50:20;1.40;99.90
3980;DHT22;2004;52.452;13.120;2022-11-20T14:58:23;1.30;99.90
3980;DHT22;2004;52.452;13.120;2022-11-20T15:06:13;1.30;99.90
3980;DHT22;2004;52.452;13.120;2022-11-20T15:14:05;1.30;99.90
3980;DHT22;2004;52.452;13.120;2022-11-20T15:21:56;1.30;99.90
3980;DHT22;2004;52.452;13.120;2022-11-20T15:29:47;1.30;99.90
3980;DHT22;2004;52.452;13.120;2022-11-20T15:37:41;1.30;99.90
3980;DHT22;2004;52.452;13.120;2022-11-20T15:45:47;1.30;99.90
3980;DHT22;2004;52.452;13.120;2022-11-20T15:53:38;1.30;99.90
3980;DHT22;2004;52.452;13.120;2022-11-20T16:01:30;1.20;99.90
3980;DHT22;2004;52.452;13.120;2022-11-20T16:09:20;1.10;99.90
3980;DHT22;2004;52.452;13.120;2022-11-20T16:17:12;1.10;99.90
3980;DHT22;2004;52.452;13.120;2022-11-20T16:25:03;1.00;99.90
3980;DHT22;2004;52.452;13.120;2022-11-20T16:32:54;1.00;99.90
3980;DHT22;2004;52.452;13.120;2022-11-20T16:40:44;0.90;99.90
3980;DHT22;2004;52.452;13.120;2022-11-20T16:48:35;0.90;99.90
3980;DHT22;2004;52.452;13.120;2022-11-20T16:56:27;0.80;99.90
3980;DHT22;2004;52.452;13.120;2022-11-20T17:04:17;0.80;99.90
3980;DHT22;2004;52.452;13.120;2022-11-20T17:12:08;0.70;99.90
3980;DHT22;2004;52.452;13.120;2022-11-20T17:20:00;0.70;99.90
3980;DHT22;2004;52.452;13.120;2022-11-20T17:27:50;0.70;99.90
3980;DHT22;2004;52.452;13.120;2022-11-20T17:35:41;0.70;99.90
3980;DHT22;2004;52.452;13.120;2022-11-20T17:43:32;0.60;99.90
3980;DHT22;2004;52.452;13.120;2022-11-20T17:51:25;0.60;99.90
3980;DHT22;2004;52.452;13.120;2022-11-20T17:59:17;0.50;99.90
3980;DHT22;2004;52.452;13.120;2022-11-20T18:07:08;0.50;99.90
3980;DHT22;2004;52.452;13.120;2022-11-20T18:14:59;0.40;99.90
3980;DHT22;2004;52.452;13.120;2022-11-20T18:22:49;0.30;99.90
3980;DHT22;2004;52.452;13.120;2022-11-20T18:30:40;0.30;99.90
3980;DHT22;2004;52.452;13.120;2022-11-20T18:38:30;0.30;99.90
3980;DHT22;2004;52.452;13.120;2022-11-20T18:46:20;0.30;99.90
3980;DHT22;2004;52.452;13.120;2022-11-20T18:54:12;0.20;99.90
3980;DHT22;2004;52.452;13.120;2022-11-20T19:02:03;0.20;99.90
3980;DHT22;2004;52.452;13.120;2022-11-20T19:09:53;0.20;99.90
3980;DHT22;2004;52.452;13.120;2022-11-20T19:17:44;0.20;99.90
3980;DHT22;2004;52.452;13.120;2022-11-20T19:25:35;0.10;99.90
3980;DHT22;2004;52.452;13.120;2022-11-20T19:33:25;0.10;99.90
3980;DHT22;2004;52.452;13.120;2022-11-20T19:41:22;0.10;99.90
3980;DHT22;2004;52.452;13.120;2022-11-20T19:49:18;0.10;99.90
3980;DHT22;2004;52.452;13.120;2022-11-20T19:57:08;0.10;99.90
3980;DHT22;2004;52.452;13.120;2022-11-20T20:04:59;0.00;99.90
3980;DHT22;2004;52.452;13.120;2022-11-20T20:12:49;0.00;99.90
3980;DHT22;2004;52.452;13.120;2022-11-20T20:20:40;-0.10;99.90
3980;DHT22;2004;52.452;13.120;2022-11-20T20:28:31;-0.10;99.90
3980;DHT22;2004;52.452;13.120;2022-11-20T20:36:22;-0.20;99.90
3980;DHT22;2004;52.452;13.120;2022-11-20T20:44:13;-0.20;99.90
3980;DHT22;2004;52.452;13.120;2022-11-20T20:52:23;-0.30;99.90
3980;DHT22;2004;52.452;13.120;2022-11-20T21:00:16;-0.30;99.90
3980;DHT22;2004;52.452;13.120;2022-11-20T21:08:07;-0.30;99.90
3980;DHT22;2004;52.452;13.120;2022-11-20T21:16:15;-0.40;99.90
3980;DHT22;2004;52.452;13.120;2022-11-20T21:24:06;-0.50;99.90
3980;DHT22;2004;52.452;13.120;2022-11-20T21:31:57;-0.50;99.90
3980;DHT22;2004;52.452;13.120;2022-11-20T21:39:48;-0.50;99.90
3980;DHT22;2004;52.452;13.120;2022-11-20T21:47:41;-0.60;99.90
3980;DHT22;2004;52.452;13.120;2022-11-20T21:55:31;-0.60;99.90
3980;DHT22;2004;52.452;13.120;2022-11-20T22:03:22;-0.70;99.90
3980;DHT22;2004;52.452;13.120;2022-11-20T22:11:18;-0.80;99.90
3980;DHT22;2004;52.452;13.120;2022-11-20T22:19:09;-0.80;99.90
3980;DHT22;2004;52.452;13.120;2022-11-20T22:26:59;-0.90;99.90
3980;DHT22;2004;52.452;13.120;2022-11-20T22:34:50;-1.00;99.90
3980;DHT22;2004;52.452;13.120;2022-11-20T22:42:44;-1.00;99.90
3980;DHT22;2004;52.452;13.120;2022-11-20T22:50:35;-1.10;99.90
3980;DHT22;2004;52.452;13.120;2022-11-20T22:58:30;-1.10;99.90
3980;DHT22;2004;52.452;13.120;2022-11-20T23:06:21;-1.00;99.90
3980;DHT22;2004;52.452;13.120;2022-11-20T23:14:13;-1.00;99.90
3980;DHT22;2004;52.452;13.120;2022-11-20T23:22:04;-1.00;99.90
3980;DHT22;2004;52.452;13.120;2022-11-20T23:29:54;-1.00;99.90
3980;DHT22;2004;52.452;13.120;2022-11-20T23:37:48;-0.90;99.90
3980;DHT22;2004;52.452;13.120;2022-11-20T23:45:38;-0.90;99.90
3980;DHT22;2004;52.452;13.120;2022-11-20T23:53:29;-0.90;99.90
